Time;durP1;ratioP1;P1;durP2;ratioP2;P2;SDS_P1;SDS_P2;PMS_P1;PMS_P2;Temp;Humidity;BMP_temperature;BMP_pressure;BME280_temperature;BME280_humidity;BME280_pressure;Samples;Min_cycle;Max_cycle;Signal;HPM_P1;HPM_P2
2022/03/06 00:00:48;;;;;;;33.10;15.57;;;;;;;4.09;100.00;100426.19;5024193;28;20547;-73
2022/03/06 00:03:16;;;;;;;16.07;9.37;;;;;;;4.23;100.00;100458.47;5013532;28;20205;-73
2022/03/06 00:05:43;;;;;;;18.43;11.63;;;;;;;4.18;100.00;100467.66;5013506;28;20196;-75
2022/03/06 00:08:09;;;;;;;24.90;12.90;;;;;;;4.17;100.00;100474.50;5029418;28;20192;-75
2022/03/06 00:10:36;;;;;;;26.73;14.10;;;;;;;3.88;100.00;100424.38;5032880;28;20193;-75
2022/03/06 00:13:03;;;;;;;15.97;9.47;;;;;;;4.13;100.00;100480.28;5029562;28;20185;-75
2022/03/06 00:15:30;;;;;;;24.03;14.03;;;;;;;4.18;100.00;100478.78;5013774;28;20269;-73
2022/03/06 00:17:57;;;;;;;15.50;9.90;;;;;;;3.76;100.00;100417.78;5014058;28;20255;-74
2022/03/06 00:20:25;;;;;;;19.87;9.93;;;;;;;4.08;100.00;100479.19;5015337;28;20683;-75
2022/03/06 00:22:52;;;;;;;27.70;16.83;;;;;;;4.12;100.00;100478.53;5033436;28;20196;-73
2022/03/06 00:25:19;;;;;;;17.93;11.87;;;;;;;4.04;100.00;100481.50;5031939;28;20626;-74
2022/03/06 00:27:46;;;;;;;33.47;15.00;;;;;;;4.04;100.00;100477.28;5017599;28;20212;-75
2022/03/06 00:30:13;;;;;;;25.33;13.80;;;;;;;3.97;100.00;100473.53;5028688;28;20189;-74
2022/03/06 00:32:40;;;;;;;14.20;9.00;;;;;;;3.95;100.00;100470.03;5013074;28;20570;-75
2022/03/06 00:35:08;;;;;;;29.00;15.27;;;;;;;4.05;100.00;100481.59;5014475;28;20200;-73
2022/03/06 00:37:37;;;;;;;33.33;18.23;;;;;;;3.95;100.00;100446.06;5023071;28;20227;-74
2022/03/06 00:40:06;;;;;;;24.47;13.10;;;;;;;4.03;100.00;100456.69;5033058;28;20196;-74
2022/03/06 00:42:33;;;;;;;21.27;10.07;;;;;;;3.43;100.00;100435.00;5012884;28;20292;-74
2022/03/06 00:44:59;;;;;;;15.33;8.00;;;;;;;3.32;100.00;100439.59;5016088;28;20192;-74
2022/03/06 00:47:26;;;;;;;21.47;11.47;;;;;;;3.04;100.00;100422.78;5030061;28;20228;-75
2022/03/06 00:49:53;;;;;;;24.33;12.63;;;;;;;2.99;100.00;100427.69;5032596;28;20196;-74
2022/03/06 00:52:20;;;;;;;17.00;9.80;;;;;;;2.93;100.00;100429.91;5016171;28;20193;-73
2022/03/06 00:54:48;;;;;;;18.97;9.50;;;;;;;2.96;100.00;100419.84;5012935;28;20578;-75
2022/03/06 00:57:15;;;;;;;14.07;8.90;;;;;;;2.99;100.00;100435.38;5024338;28;20219;-76
2022/03/06 00:59:41;;;;;;;18.40;10.93;;;;;;;3.01;100.00;100423.50;5021097;28;20213;-75
2022/03/06 01:02:08;;;;;;;11.77;8.07;;;;;;;3.12;100.00;100435.19;5021426;28;20189;-75
2022/03/06 01:04:36;;;;;;;22.00;12.33;;;;;;;3.24;100.00;100430.66;5020945;28;20195;-75
2022/03/06 01:07:03;;;;;;;22.90;11.60;;;;;;;2.97;100.00;100385.75;5029760;28;20192;-75
2022/03/06 01:09:30;;;;;;;16.63;9.50;;;;;;;3.34;100.00;100439.69;5023068;28;20256;-75
2022/03/06 01:11:58;;;;;;;13.47;7.93;;;;;;;3.33;100.00;100443.94;5025517;28;20206;-75
2022/03/06 01:14:25;;;;;;;23.60;11.47;;;;;;;3.11;100.00;100405.22;5032223;28;20203;-74
2022/03/06 01:16:52;;;;;;;21.80;12.40;;;;;;;3.15;100.00;100412.28;5019707;28;20232;-75
2022/03/06 01:19:19;;;;;;;29.80;15.80;;;;;;;3.19;100.00;100403.94;5012964;28;20197;-75
2022/03/06 01:21:46;;;;;;;14.30;9.23;;;;;;;3.39;100.00;100448.47;5023895;28;20287;-74
2022/03/06 01:24:13;;;;;;;32.60;16.77;;;;;;;3.41;100.00;100437.50;5020255;28;20199;-74
2022/03/06 01:26:40;;;;;;;16.33;9.60;;;;;;;3.47;100.00;100467.66;5030856;28;20200;-75
2022/03/06 01:29:08;;;;;;;20.67;11.13;;;;;;;3.53;100.00;100472.22;5031874;28;20192;-75
2022/03/06 01:31:35;;;;;;;18.60;9.73;;;;;;;3.46;100.00;100465.94;5025654;28;20204;-75
2022/03/06 01:34:03;;;;;;;16.77;9.90;;;;;;;3.37;100.00;100458.66;5012385;28;20197;-75
2022/03/06 01:36:31;;;;;;;23.13;11.53;;;;;;;3.11;100.00;100435.97;5012454;28;20817;-76
2022/03/06 01:38:58;;;;;;;18.03;11.20;;;;;;;3.39;100.00;100464.72;5012614;28;20642;-75
2022/03/06 01:41:25;;;;;;;14.60;8.50;;;;;;;3.31;100.00;100460.91;5020770;28;20232;-74
2022/03/06 01:43:52;;;;;;;15.33;9.20;;;;;;;3.28;100.00;100465.88;5022188;28;20223;-75
2022/03/06 01:46:20;;;;;;;13.73;7.83;;;;;;;3.26;100.00;100476.84;5018136;28;20219;-75
2022/03/06 01:48:47;;;;;;;18.00;10.70;;;;;;;3.18;100.00;100461.09;5023258;28;20192;-76
2022/03/06 01:51:14;;;;;;;18.20;9.37;;;;;;;3.20;100.00;100468.88;5019319;28;20263;-75
2022/03/06 01:53:41;;;;;;;20.40;10.83;;;;;;;2.87;100.00;100414.25;5032319;28;20200;-74
2022/03/06 01:56:10;;;;;;;25.40;10.93;;;;;;;3.13;100.00;100467.69;5031340;28;20212;-76
2022/03/06 01:58:37;;;;;;;22.20;10.47;;;;;;;3.10;100.00;100472.66;5031638;28;20201;-75
2022/03/06 02:01:04;;;;;;;17.60;8.33;;;;;;;3.09;100.00;100468.31;5030680;28;20192;-76
2022/03/06 02:03:32;;;;;;;20.27;10.30;;;;;;;3.04;100.00;100479.13;5019186;28;20203;-76
2022/03/06 02:05:59;;;;;;;23.93;12.70;;;;;;;3.02;100.00;100479.06;5029306;28;20188;-75
2022/03/06 02:08:26;;;;;;;17.97;9.83;;;;;;;2.97;100.00;100463.44;5031907;28;20200;-75
2022/03/06 02:10:54;;;;;;;21.47;12.73;;;;;;;3.08;100.00;100466.56;5027567;28;20255;-75
2022/03/06 02:13:21;;;;;;;23.90;10.00;;;;;;;3.01;100.00;100490.09;5011921;28;20232;-75
2022/03/06 02:15:49;;;;;;;15.93;9.40;;;;;;;2.98;100.00;100483.16;5030153;28;20671;-75
2022/03/06 02:18:16;;;;;;;17.40;7.10;;;;;;;2.95;100.00;100477.00;5031504;28;20328;-75
2022/03/06 02:20:44;;;;;;;24.13;10.87;;;;;;;3.04;100.00;100477.44;5029570;28;20254;-75
2022/03/06 02:23:12;;;;;;;19.23;8.80;;;;;;;3.05;100.00;100475.78;5027568;28;20201;-75
2022/03/06 02:25:39;;;;;;;20.67;9.57;;;;;;;3.03;100.00;100478.28;5029492;28;20200;-75
2022/03/06 02:28:07;;;;;;;19.23;11.47;;;;;;;3.06;100.00;100478.41;5033726;28;20624;-74
2022/03/06 02:30:36;;;;;;;9.53;5.10;;;;;;;3.04;100.00;100472.31;5027661;28;20666;-74
2022/03/06 02:33:05;;;;;;;12.10;6.07;;;;;;;3.04;100.00;100481.69;5022270;28;20258;-74
2022/03/06 02:35:34;;;;;;;16.40;8.80;;;;;;;2.85;100.00;100482.44;5024870;28;20200;-75
2022/03/06 02:38:00;;;;;;;16.70;8.40;;;;;;;2.87;100.00;100486.84;5015577;28;20278;-74
2022/03/06 02:40:29;;;;;;;25.67;9.13;;;;;;;2.87;100.00;100480.84;5024961;28;20192;-73
2022/03/06 02:42:56;;;;;;;10.57;6.17;;;;;;;2.82;100.00;100474.56;5030973;28;20690;-74
2022/03/06 02:45:25;;;;;;;12.30;7.47;;;;;;;2.84;100.00;100483.25;5015712;28;20208;-78
2022/03/06 02:47:54;;;;;;;9.43;5.57;;;;;;;2.84;100.00;100484.13;5015469;28;20279;-75
2022/03/06 02:50:24;;;;;;;4.33;3.40;;;;;;;2.83;100.00;100489.16;5021102;28;20189;-75
2022/03/06 02:52:52;;;;;;;8.00;5.73;;;;;;;2.84;100.00;100491.81;5015705;28;20259;-75
2022/03/06 02:55:19;;;;;;;11.67;6.67;;;;;;;2.76;100.00;100479.38;5015374;28;20193;-75
2022/03/06 02:57:48;;;;;;;12.20;8.07;;;;;;;2.85;100.00;100490.13;5030358;28;20243;-75
2022/03/06 03:00:18;;;;;;;10.33;7.50;;;;;;;2.82;100.00;100495.94;5022571;28;20211;-76
2022/03/06 03:02:45;;;;;;;12.57;7.57;;;;;;;2.86;100.00;100489.31;5034985;28;20199;-75
2022/03/06 03:05:13;;;;;;;14.83;8.63;;;;;;;2.87;100.00;100498.75;5034514;28;20196;-75
2022/03/06 03:07:40;;;;;;;9.30;6.03;;;;;;;2.74;100.00;100493.81;5034383;28;20666;-75
2022/03/06 03:10:09;;;;;;;8.77;4.63;;;;;;;2.70;100.00;100495.31;5021489;28;20192;-76
2022/03/06 03:12:36;;;;;;;16.93;7.13;;;;;;;2.61;100.00;100507.63;5034669;28;20207;-75
2022/03/06 03:15:06;;;;;;;9.83;6.37;;;;;;;2.72;100.00;100509.06;5034442;28;20200;-76
2022/03/06 03:17:33;;;;;;;9.20;5.97;;;;;;;2.66;100.00;100495.97;5034563;28;20228;-76
2022/03/06 03:20:00;;;;;;;13.40;7.23;;;;;;;2.61;100.00;100506.72;5029499;28;20215;-75
2022/03/06 03:22:26;;;;;;;11.67;6.07;;;;;;;2.65;100.00;100514.66;5015823;28;20204;-75
2022/03/06 03:24:53;;;;;;;10.00;6.10;;;;;;;2.42;100.00;100482.75;5014752;28;20197;-76
2022/03/06 03:27:20;;;;;;;15.50;9.23;;;;;;;2.67;100.00;100517.31;5030470;28;20192;-76
2022/03/06 03:29:47;;;;;;;9.00;5.57;;;;;;;2.58;100.00;100524.50;5032753;28;20203;-76
2022/03/06 03:32:15;;;;;;;9.20;6.17;;;;;;;2.68;100.00;100517.38;5017483;28;20223;-74
2022/03/06 03:34:42;;;;;;;15.93;7.03;;;;;;;2.52;100.00;100516.50;5015884;28;20194;-75
2022/03/06 03:37:09;;;;;;;13.07;7.73;;;;;;;2.66;100.00;100525.78;5014014;28;20271;-74
2022/03/06 03:39:35;;;;;;;14.60;6.93;;;;;;;2.67;100.00;100535.25;5013986;28;20196;-74
2022/03/06 03:42:02;;;;;;;9.73;4.70;;;;;;;2.65;100.00;100524.91;5032572;28;20200;-73
2022/03/06 03:44:29;;;;;;;14.30;7.73;;;;;;;2.38;100.00;100478.28;5022891;28;20203;-74
2022/03/06 03:46:56;;;;;;;15.47;8.77;;;;;;;2.66;100.00;100530.91;5029163;28;20719;-73
2022/03/06 03:49:24;;;;;;;9.17;3.70;;;;;;;2.51;100.00;100507.94;5014235;28;20566;-74
2022/03/06 03:51:52;;;;;;;9.60;6.90;;;;;;;2.62;100.00;100529.88;5032583;28;20211;-73
2022/03/06 03:54:18;;;;;;;12.63;6.17;;;;;;;2.64;100.00;100522.28;5034250;28;20582;-76
2022/03/06 03:56:45;;;;;;;8.33;4.90;;;;;;;2.13;100.00;100441.06;5033805;28;20216;-73
2022/03/06 03:59:12;;;;;;;7.27;4.70;;;;;;;2.12;100.00;100457.19;5032623;28;20199;-74
2022/03/06 04:01:39;;;;;;;7.60;5.20;;;;;;;2.45;100.00;100523.84;5016826;28;20200;-73
2022/03/06 04:04:05;;;;;;;15.43;7.87;;;;;;;2.50;100.00;100519.84;5014898;28;20193;-74
2022/03/06 04:06:34;;;;;;;15.97;7.23;;;;;;;2.58;100.00;100520.25;5019616;28;20678;-74
2022/03/06 04:09:00;;;;;;;18.50;8.63;;;;;;;2.66;100.00;100518.09;5033808;28;20200;-74
2022/03/06 04:11:27;;;;;;;6.03;4.30;;;;;;;2.52;100.00;100524.19;5017838;28;20193;-74
2022/03/06 04:13:54;;;;;;;6.10;4.80;;;;;;;2.45;100.00;100518.72;5014810;28;20738;-75
2022/03/06 04:16:21;;;;;;;7.53;5.47;;;;;;;2.50;100.00;100512.16;5025602;28;20578;-74
2022/03/06 04:18:47;;;;;;;11.80;6.07;;;;;;;2.19;100.00;100469.50;5021301;28;20230;-74
2022/03/06 04:21:14;;;;;;;10.63;4.90;;;;;;;2.42;100.00;100512.56;5020353;28;20201;-74
2022/03/06 04:23:42;;;;;;;11.40;5.83;;;;;;;2.56;100.00;100523.53;5013758;28;20204;-73
2022/03/06 04:26:09;;;;;;;9.60;4.33;;;;;;;2.21;100.00;100463.66;5014606;28;20575;-74
2022/03/06 04:28:36;;;;;;;5.97;3.87;;;;;;;2.50;100.00;100524.97;5014657;28;20193;-73
2022/03/06 04:31:03;;;;;;;7.33;4.57;;;;;;;2.52;100.00;100526.72;5026364;28;20192;-74
2022/03/06 04:33:29;;;;;;;10.23;6.37;;;;;;;2.23;100.00;100477.44;5021329;28;20251;-75
2022/03/06 04:35:56;;;;;;;9.10;5.60;;;;;;;2.51;100.00;100523.28;5024678;28;20192;-73
2022/03/06 04:38:23;;;;;;;10.50;5.50;;;;;;;2.59;100.00;100534.81;5016823;28;20249;-74
2022/03/06 04:40:51;;;;;;;3.63;3.00;;;;;;;2.59;100.00;100528.81;5031949;28;20215;-73
2022/03/06 04:43:18;;;;;;;4.07;3.67;;;;;;;2.53;100.00;100523.38;5019987;28;20205;-73
2022/03/06 04:45:45;;;;;;;6.00;3.67;;;;;;;2.63;100.00;100538.44;5018669;28;20216;-73
2022/03/06 04:48:12;;;;;;;6.57;5.43;;;;;;;2.55;100.00;100532.00;5013197;28;20247;-76
2022/03/06 04:50:39;;;;;;;6.00;3.67;;;;;;;2.56;100.00;100521.88;5020529;28;20192;-75
2022/03/06 04:53:05;;;;;;;6.77;5.03;;;;;;;2.55;100.00;100537.13;5017164;28;20197;-75
2022/03/06 04:55:32;;;;;;;7.73;4.40;;;;;;;2.23;100.00;100537.94;5027405;28;20733;-75
2022/03/06 04:58:00;;;;;;;9.13;5.60;;;;;;;2.23;100.00;100540.50;5013800;28;20604;-76
2022/03/06 05:00:27;;;;;;;10.33;6.67;;;;;;;2.13;100.00;100516.09;5013222;28;20215;-75
2022/03/06 05:02:54;;;;;;;5.17;4.63;;;;;;;1.83;100.00;100487.16;5021646;28;20200;-75
2022/03/06 05:05:21;;;;;;;10.30;5.97;;;;;;;2.13;100.00;100528.88;5017931;28;20205;-75
2022/03/06 05:07:48;;;;;;;3.80;3.23;;;;;;;1.78;100.00;100485.16;5012574;28;20585;-75
2022/03/06 05:10:15;;;;;;;9.90;6.63;;;;;;;2.10;100.00;100535.50;5013208;28;20200;-75
2022/03/06 05:12:42;;;;;;;11.03;6.20;;;;;;;2.13;100.00;100535.69;5021130;28;20200;-75
2022/03/06 05:15:13;;;;;;;12.13;7.73;;;;;;;2.13;100.00;100536.56;5023954;28;20710;-74
2022/03/06 05:17:41;;;;;;;6.93;4.90;;;;;;;1.90;100.00;100536.94;5028828;28;21943;-75
2022/03/06 05:20:10;;;;;;;5.40;3.67;;;;;;;1.69;100.00;100520.38;5012599;28;20694;-76
2022/03/06 05:22:37;;;;;;;14.07;7.67;;;;;;;1.58;100.00;100512.13;5017966;28;20204;-75
2022/03/06 05:25:05;;;;;;;18.50;8.13;;;;;;;1.78;100.00;100513.25;5015142;28;20197;-76
2022/03/06 05:27:32;;;;;;;10.83;7.03;;;;;;;1.61;100.00;100537.84;5028450;28;20200;-75
2022/03/06 05:29:59;;;;;;;13.37;8.37;;;;;;;1.63;100.00;100541.38;5028294;28;20189;-76
2022/03/06 05:32:27;;;;;;;8.87;6.40;;;;;;;1.26;100.00;100492.38;5015915;28;20207;-75
2022/03/06 05:34:54;;;;;;;6.47;5.80;;;;;;;1.02;100.00;100490.94;5031739;28;20204;-76
2022/03/06 05:37:20;;;;;;;9.17;5.23;;;;;;;0.63;100.00;100387.41;5031709;28;20654;-77
2022/03/06 05:39:47;;;;;;;11.77;7.20;;;;;;;1.35;100.00;100549.13;5032639;28;20630;-75
2022/03/06 05:42:15;;;;;;;10.13;6.20;;;;;;;0.94;100.00;100462.41;5026523;28;20268;-75
2022/03/06 05:44:42;;;;;;;13.33;8.23;;;;;;;1.45;100.00;100550.53;5021970;28;20217;-76
2022/03/06 05:47:08;;;;;;;7.63;5.47;;;;;;;1.39;100.00;100556.16;5027467;28;20710;-76
2022/03/06 05:49:37;;;;;;;15.00;8.70;;;;;;;1.60;100.00;100550.53;5025915;28;20204;-75
2022/03/06 05:52:04;;;;;;;8.73;6.20;;;;;;;1.54;100.00;100540.84;5028814;28;20199;-76
2022/03/06 05:54:31;;;;;;;17.27;9.87;;;;;;;1.98;100.00;100540.81;5024148;28;20188;-75
2022/03/06 05:56:58;;;;;;;10.70;6.43;;;;;;;1.84;100.00;100546.81;5031356;28;20196;-76
2022/03/06 05:59:25;;;;;;;9.40;6.00;;;;;;;1.76;100.00;100543.84;5030835;28;20253;-76
2022/03/06 06:01:52;;;;;;;10.13;5.67;;;;;;;1.48;100.00;100554.16;5028802;28;20196;-74
2022/03/06 06:04:19;;;;;;;6.03;4.07;;;;;;;1.34;100.00;100531.13;5024338;28;20230;-75
2022/03/06 06:06:47;;;;;;;24.20;11.37;;;;;;;1.61;100.00;100559.94;5027975;28;20220;-76
2022/03/06 06:09:14;;;;;;;13.47;7.87;;;;;;;1.31;100.00;100524.19;5028977;28;20200;-74
2022/03/06 06:11:41;;;;;;;8.10;5.13;;;;;;;1.44;100.00;100547.09;5029630;28;20275;-77
2022/03/06 06:14:08;;;;;;;8.83;5.13;;;;;;;1.35;100.00;100559.34;5024003;28;20204;-75
2022/03/06 06:16:35;;;;;;;10.67;5.43;;;;;;;1.56;100.00;100569.03;5023126;28;20197;-74
2022/03/06 06:19:02;;;;;;;10.63;5.20;;;;;;;1.59;100.00;100559.00;5021150;28;20227;-74
2022/03/06 06:21:28;;;;;;;7.83;5.40;;;;;;;1.67;100.00;100555.22;5027665;28;20696;-76
2022/03/06 06:23:57;;;;;;;6.67;4.47;;;;;;;1.15;100.00;100495.97;5027338;28;20197;-74
2022/03/06 06:26:24;;;;;;;6.73;5.27;;;;;;;1.60;100.00;100558.22;5029210;28;20196;-75
2022/03/06 06:28:55;;;;;;;17.00;8.30;;;;;;;1.73;100.00;100559.00;5031708;28;20295;-74
2022/03/06 06:31:23;;;;;;;7.63;5.57;;;;;;;1.73;100.00;100561.56;5018138;28;20204;-76
2022/03/06 06:33:49;;;;;;;10.53;4.70;;;;;;;1.71;100.00;100555.44;5011884;28;20203;-75
2022/03/06 06:36:17;;;;;;;13.17;6.67;;;;;;;1.70;100.00;100561.38;5018212;28;20192;-76
2022/03/06 06:38:43;;;;;;;9.37;5.17;;;;;;;1.79;100.00;100571.22;5030897;28;20616;-74
2022/03/06 06:41:12;;;;;;;12.23;6.60;;;;;;;2.09;100.00;100570.44;5031270;28;20627;-75
2022/03/06 06:43:38;;;;;;;8.50;5.73;;;;;;;2.15;100.00;100564.75;5023918;28;20681;-74
2022/03/06 06:46:06;;;;;;;19.10;4.73;;;;;;;1.99;100.00;100568.16;5018080;28;20653;-77
2022/03/06 06:48:33;;;;;;;6.23;3.93;;;;;;;1.87;100.00;100562.34;5014422;28;20287;-75
2022/03/06 06:50:59;;;;;;;10.87;6.97;;;;;;;2.04;100.00;100566.72;5012763;28;20193;-71
2022/03/06 06:53:26;;;;;;;7.13;4.53;;;;;;;1.89;100.00;100560.75;5017292;28;20729;-77
2022/03/06 06:55:53;;;;;;;12.73;6.97;;;;;;;2.13;100.00;100572.38;5021775;28;20690;-79
2022/03/06 06:58:22;;;;;;;14.23;5.97;;;;;;;2.09;100.00;100562.75;5031374;28;20247;-73
2022/03/06 07:00:49;;;;;;;12.33;5.63;;;;;;;2.15;100.00;100575.00;5030837;28;20250;-77
2022/03/06 07:03:16;;;;;;;14.10;5.87;;;;;;;2.00;100.00;100580.13;5030470;28;20689;-77
2022/03/06 07:05:45;;;;;;;9.27;5.63;;;;;;;2.02;100.00;100576.00;5029976;28;20301;-78
2022/03/06 07:08:11;;;;;;;10.37;5.30;;;;;;;2.08;100.00;100573.78;5030552;28;20198;-77
2022/03/06 07:10:38;;;;;;;10.30;6.00;;;;;;;2.13;100.00;100551.91;5029808;28;20196;-78
2022/03/06 07:13:05;;;;;;;8.93;6.40;;;;;;;2.36;100.00;100565.94;5014495;28;20201;-77
2022/03/06 07:15:34;;;;;;;8.40;5.47;;;;;;;2.49;100.00;100571.84;5014892;28;20234;-78
2022/03/06 07:18:01;;;;;;;18.20;4.63;;;;;;;2.45;100.00;100552.00;5015149;28;20240;-76
2022/03/06 07:20:28;;;;;;;8.33;4.70;;;;;;;2.52;100.00;100550.66;5014778;28;20193;-72
2022/03/06 07:22:55;;;;;;;11.70;6.07;;;;;;;2.46;100.00;100543.50;5029412;28;20559;-74
2022/03/06 07:25:22;;;;;;;7.03;4.83;;;;;;;2.47;100.00;100567.41;5022791;28;20208;-75
2022/03/06 07:27:49;;;;;;;7.20;4.57;;;;;;;2.50;100.00;100580.38;5014738;28;20256;-74
2022/03/06 07:30:16;;;;;;;4.63;4.23;;;;;;;2.61;100.00;100584.41;5014690;28;20660;-78
2022/03/06 07:32:46;;;;;;;5.67;3.23;;;;;;;2.63;100.00;100577.72;5015800;28;20196;-78
2022/03/06 07:35:14;;;;;;;9.77;4.97;;;;;;;2.13;100.00;100500.75;5028213;28;20196;-81
2022/03/06 07:37:41;;;;;;;4.23;3.50;;;;;;;2.60;100.00;100576.66;5033540;28;20211;-81
2022/03/06 07:40:10;;;;;;;5.17;4.63;;;;;;;2.80;100.00;100579.50;5036190;28;20200;-77
2022/03/06 07:42:37;;;;;;;7.03;4.60;;;;;;;3.03;100.00;100575.59;5023023;28;20201;-78
2022/03/06 07:45:04;;;;;;;5.57;3.60;;;;;;;2.86;100.00;100589.16;5026977;28;21922;-79
2022/03/06 07:47:31;;;;;;;4.43;3.23;;;;;;;2.78;100.00;100568.28;5014827;28;20233;-77
2022/03/06 07:49:59;;;;;;;4.23;3.60;;;;;;;2.86;100.00;100578.91;5021482;28;20197;-77
2022/03/06 07:52:26;;;;;;;6.10;4.00;;;;;;;2.85;100.00;100585.72;5013977;28;20201;-77
2022/03/06 07:54:53;;;;;;;5.37;4.37;;;;;;;2.86;100.00;100525.16;5014392;28;20201;-80
2022/03/06 07:57:20;;;;;;;6.90;5.23;;;;;;;3.25;100.00;100565.63;5034435;28;20200;-79
2022/03/06 07:59:47;;;;;;;6.20;3.97;;;;;;;3.21;100.00;100584.22;5032941;28;20227;-78
2022/03/06 08:02:13;;;;;;;6.07;4.50;;;;;;;3.31;100.00;100562.53;5014770;28;20204;-78
2022/03/06 08:04:40;;;;;;;7.00;4.77;;;;;;;3.11;100.00;100533.31;5028517;28;20603;-79
2022/03/06 08:07:08;;;;;;;6.87;4.10;;;;;;;3.16;100.00;100580.56;5033246;28;20195;-78
2022/03/06 08:09:35;;;;;;;6.80;4.33;;;;;;;3.26;100.00;100584.47;5033461;28;20228;-80
2022/03/06 08:12:03;;;;;;;5.13;3.50;;;;;;;3.00;100.00;100519.06;5033592;28;20195;-77
2022/03/06 08:14:30;;;;;;;6.07;4.00;;;;;;;3.62;100.00;100576.09;5033648;28;20204;-78
2022/03/06 08:16:57;;;;;;;5.27;4.63;;;;;;;3.44;100.00;100578.59;5033988;28;20597;-77
2022/03/06 08:19:24;;;;;;;6.50;4.90;;;;;;;3.43;100.00;100581.97;5033959;28;20307;-78
2022/03/06 08:21:51;;;;;;;8.23;4.90;;;;;;;3.83;100.00;100583.97;5033519;28;20299;-77
2022/03/06 08:24:19;;;;;;;8.63;5.87;;;;;;;4.27;100.00;100581.00;5035898;28;20591;-79
2022/03/06 08:26:46;;;;;;;5.23;3.57;;;;;;;4.00;100.00;100581.44;5034059;28;20193;-77
2022/03/06 08:29:13;;;;;;;8.63;4.53;;;;;;;3.55;100.00;100494.56;5033805;28;20195;-78
2022/03/06 08:31:40;;;;;;;5.03;4.17;;;;;;;3.43;100.00;100461.50;5033782;28;20193;-78
2022/03/06 08:34:06;;;;;;;12.13;6.83;;;;;;;3.95;100.00;100464.91;5033149;28;20207;-76
2022/03/06 08:36:34;;;;;;;8.57;4.83;;;;;;;3.87;100.00;100561.13;5032953;28;20196;-79
2022/03/06 08:39:01;;;;;;;8.27;4.60;;;;;;;3.91;100.00;100536.50;5033137;28;20232;-79
2022/03/06 08:41:29;;;;;;;11.53;5.63;;;;;;;4.46;100.00;100552.81;5017849;28;20196;-80
2022/03/06 08:43:56;;;;;;;6.63;4.20;;;;;;;4.25;100.00;100547.56;5026379;28;20196;-78
2022/03/06 08:46:23;;;;;;;8.43;6.07;;;;;;;4.24;99.24;100550.06;5022041;28;20614;-83
2022/03/06 08:48:49;;;;;;;9.07;4.67;;;;;;;3.84;100.00;100548.16;5020759;28;20203;-78
2022/03/06 08:51:16;;;;;;;7.93;4.47;;;;;;;4.24;100.00;100565.47;5023726;28;20200;-81
2022/03/06 08:53:43;;;;;;;7.87;5.00;;;;;;;4.47;99.87;100547.75;5020992;28;20192;-80
2022/03/06 08:56:10;;;;;;;5.00;3.97;;;;;;;4.37;98.34;100549.84;5022567;28;20691;-82
2022/03/06 08:58:38;;;;;;;7.83;4.83;;;;;;;4.40;98.57;100561.13;5020950;28;20725;-80
2022/03/06 09:01:05;;;;;;;8.47;5.47;;;;;;;4.30;97.56;100558.94;5024291;28;20196;-84
2022/03/06 09:03:32;;;;;;;6.63;4.63;;;;;;;4.27;98.17;100551.09;5023157;28;20592;-81
2022/03/06 09:05:59;;;;;;;9.67;4.47;;;;;;;3.76;97.48;100481.91;5028441;28;20200;-83
2022/03/06 09:08:26;;;;;;;5.30;3.93;;;;;;;4.36;97.89;100554.09;5032035;28;20196;-78
2022/03/06 09:10:52;;;;;;;5.47;4.27;;;;;;;4.42;98.22;100551.78;5022763;28;20674;-75
2022/03/06 09:13:19;;;;;;;6.53;4.23;;;;;;;4.39;98.52;100561.91;5023055;28;20205;-80
2022/03/06 09:15:47;;;;;;;6.03;4.67;;;;;;;4.12;100.00;100529.84;5029080;28;20663;-82
2022/03/06 09:18:15;;;;;;;8.83;5.93;;;;;;;4.62;100.00;100545.03;5028914;28;20200;-84
2022/03/06 09:20:42;;;;;;;7.10;4.83;;;;;;;4.57;96.95;100548.19;5028495;28;20555;-83
2022/03/06 09:23:09;;;;;;;6.10;3.80;;;;;;;4.33;98.69;100550.50;5029539;28;20577;-79
2022/03/06 09:25:36;;;;;;;4.70;3.77;;;;;;;4.31;99.24;100549.56;5031768;28;20196;-77
2022/03/06 09:28:04;;;;;;;8.57;4.73;;;;;;;4.48;98.60;100546.09;5028196;28;20581;-82
2022/03/06 09:30:31;;;;;;;14.27;6.73;;;;;;;4.16;100.00;100536.88;5031224;28;20561;-82
2022/03/06 09:33:00;;;;;;;9.30;5.57;;;;;;;4.20;100.00;100537.91;5028049;28;20192;-79
2022/03/06 09:35:27;;;;;;;8.67;5.20;;;;;;;3.56;100.00;100439.03;5030774;28;20196;-81
2022/03/06 09:37:54;;;;;;;6.67;4.43;;;;;;;4.44;100.00;100534.78;5030190;28;20193;-85
2022/03/06 09:40:21;;;;;;;5.70;4.50;;;;;;;4.29;100.00;100536.63;5028611;28;20231;-83
2022/03/06 09:42:48;;;;;;;9.17;5.23;;;;;;;4.39;100.00;100531.13;5030940;28;20211;-83
2022/03/06 09:45:16;;;;;;;10.63;5.13;;;;;;;4.19;99.64;100508.78;5019866;28;20201;-80
2022/03/06 09:47:44;;;;;;;7.93;5.57;;;;;;;3.68;100.00;100458.44;5031752;28;20231;-80
2022/03/06 09:50:15;;;;;;;8.87;5.10;;;;;;;4.25;100.00;100514.19;5031838;28;20291;-81
2022/03/06 09:52:43;;;;;;;7.53;4.83;;;;;;;4.45;100.00;100536.56;5032118;28;20192;-79
2022/03/06 09:55:11;;;;;;;11.70;9.73;;;;;;;4.54;100.00;100535.19;5031769;28;20192;-78
2022/03/06 09:57:38;;;;;;;7.93;4.87;;;;;;;4.27;100.00;100524.56;5028548;28;20600;-77
2022/03/06 10:00:08;;;;;;;6.20;4.50;;;;;;;4.56;100.00;100525.91;5018574;28;20216;-78
2022/03/06 10:02:53;;;;;;;7.53;5.17;;;;;;;4.15;100.00;100458.13;5031206;28;20215;-75
2022/03/06 10:05:40;;;;;;;8.33;5.70;;;;;;;4.20;100.00;100518.25;5031171;28;20196;-78
2022/03/06 10:08:16;;;;;;;10.10;6.50;;;;;;;3.85;100.00;100461.84;5031634;28;20223;-77
2022/03/06 10:10:44;;;;;;;6.90;4.30;;;;;;;3.70;100.00;100430.34;5031984;28;20230;-79
2022/03/06 10:13:21;;;;;;;7.63;5.50;;;;;;;3.83;100.00;100442.91;5018217;28;20273;-77
2022/03/06 10:15:59;;;;;;;4.77;3.93;;;;;;;4.28;100.00;100513.47;5012308;28;20208;-79
2022/03/06 10:18:26;;;;;;;10.10;6.13;;;;;;;4.26;100.00;100509.94;5030822;28;20200;-78
2022/03/06 10:20:54;;;;;;;28.20;12.97;;;;;;;4.50;100.00;100506.81;5029829;28;20496;-79
2022/03/06 10:23:25;;;;;;;6.57;4.00;;;;;;;4.25;100.00;100457.72;5031414;28;20203;-79
2022/03/06 10:26:01;;;;;;;6.10;3.37;;;;;;;4.63;100.00;100504.81;5026412;28;20679;-78
2022/03/06 10:28:27;;;;;;;14.20;5.80;;;;;;;4.49;100.00;100502.50;5024657;28;20204;-79
2022/03/06 10:30:54;;;;;;;9.27;3.80;;;;;;;4.29;100.00;100469.03;5022266;28;20333;-80
2022/03/06 10:33:23;;;;;;;13.57;7.27;;;;;;;4.27;100.00;100461.28;5028057;28;20192;-82
2022/03/06 10:35:53;;;;;;;13.97;7.07;;;;;;;4.82;100.00;100499.69;5029703;28;20196;-79
2022/03/06 10:38:26;;;;;;;6.83;4.00;;;;;;;4.64;100.00;100496.31;5030654;28;20204;-77
2022/03/06 10:40:54;;;;;;;7.07;4.90;;;;;;;3.80;100.00;100387.25;5030988;28;20250;-75
2022/03/06 10:43:24;;;;;;;5.23;4.37;;;;;;;4.00;100.00;100408.66;5036005;28;20193;-79
2022/03/06 10:45:52;;;;;;;8.73;5.20;;;;;;;4.42;100.00;100479.06;5038220;28;20216;-81
2022/03/06 10:48:19;;;;;;;4.93;4.43;;;;;;;4.42;100.00;100495.31;5030314;28;20239;-79
2022/03/06 10:50:47;;;;;;;3.27;2.97;;;;;;;4.13;100.00;100470.03;5034854;28;20200;-79
2022/03/06 10:53:19;;;;;;;7.47;5.70;;;;;;;4.45;100.00;100492.03;5032402;28;20205;-78
2022/03/06 10:55:47;;;;;;;6.93;4.87;;;;;;;4.09;100.00;100436.44;5015681;28;20215;-76
2022/03/06 10:58:14;;;;;;;10.43;4.87;;;;;;;4.20;100.00;100490.03;5014864;28;20189;-83
2022/03/06 11:00:42;;;;;;;6.97;3.43;;;;;;;3.17;100.00;100323.59;5015148;28;20232;-81
2022/03/06 11:03:12;;;;;;;6.13;4.43;;;;;;;3.88;100.00;100429.53;5015923;28;20201;-78
2022/03/06 11:05:42;;;;;;;7.20;4.17;;;;;;;4.05;100.00;100470.47;5034603;28;20211;-79
2022/03/06 11:08:11;;;;;;;8.33;5.13;;;;;;;4.05;100.00;100445.69;5023396;28;20642;-77
2022/03/06 11:10:40;;;;;;;5.10;4.60;;;;;;;4.29;100.00;100476.72;5015094;28;20208;-79
2022/03/06 11:13:08;;;;;;;6.07;4.77;;;;;;;3.67;100.00;100379.78;5022279;28;20622;-81
2022/03/06 11:15:35;;;;;;;10.00;4.37;;;;;;;4.22;100.00;100472.13;5034642;28;20188;-78
2022/03/06 11:18:03;;;;;;;5.67;4.83;;;;;;;4.35;100.00;100462.47;5034827;28;20196;-79
2022/03/06 11:20:30;;;;;;;9.17;4.67;;;;;;;4.43;100.00;100466.28;5034623;28;20235;-77
2022/03/06 11:23:06;;;;;;;7.23;4.17;;;;;;;4.41;100.00;100452.50;5029702;28;20251;-80